sensor_id;sensor_type;location;lat;lon;timestamp;P1;durP1;ratioP1;P2;durP2;ratioP2
13432;SDS011;6789;47.678;9.158;2023-06-22T00:02:26;9.30;;;4.80;;
13432;SDS011;6789;47.678;9.158;2023-06-22T00:07:18;7.82;;;5.22;;
13432;SDS011;6789;47.678;9.158;2023-06-22T00:12:10;10.07;;;5.80;;
13432;SDS011;6789;47.678;9.158;2023-06-22T00:17:01;9.82;;;5.38;;
13432;SDS011;6789;47.678;9.158;2023-06-22T00:21:53;7.00;;;5.13;;
13432;SDS011;6789;47.678;9.158;2023-06-22T00:26:47;12.35;;;5.13;;
13432;SDS011;6789;47.678;9.158;2023-06-22T00:31:54;7.30;;;5.25;;
13432;SDS011;6789;47.678;9.158;2023-06-22T00:36:45;9.35;;;5.68;;
13432;SDS011;6789;47.678;9.158;2023-06-22T00:41:37;8.02;;;4.63;;
13432;SDS011;6789;47.678;9.158;2023-06-22T00:46:29;8.93;;;5.10;;
13432;SDS011;6789;47.678;9.158;2023-06-22T00:51:21;7.78;;;5.63;;
13432;SDS011;6789;47.678;9.158;2023-06-22T00:56:15;10.18;;;5.72;;
13432;SDS011;6789;47.678;9.158;2023-06-22T01:01:10;8.98;;;5.65;;
13432;SDS011;6789;47.678;9.158;2023-06-22T01:06:05;10.95;;;5.57;;
13432;SDS011;6789;47.678;9.158;2023-06-22T01:11:18;10.25;;;6.20;;
13432;SDS011;6789;47.678;9.158;2023-06-22T01:16:26;13.30;;;5.70;;
13432;SDS011;6789;47.678;9.158;2023-06-22T01:21:22;9.15;;;5.63;;
13432;SDS011;6789;47.678;9.158;2023-06-22T01:31:48;11.18;;;5.45;;
13432;SDS011;6789;47.678;9.158;2023-06-22T01:36:42;9.30;;;5.78;;
13432;SDS011;6789;47.678;9.158;2023-06-22T01:41:36;9.77;;;5.25;;
13432;SDS011;6789;47.678;9.158;2023-06-22T01:46:29;8.45;;;5.65;;
13432;SDS011;6789;47.678;9.158;2023-06-22T01:51:21;10.40;;;5.50;;
13432;SDS011;6789;47.678;9.158;2023-06-22T01:56:15;10.45;;;6.25;;
13432;SDS011;6789;47.678;9.158;2023-06-22T02:01:09;8.38;;;5.68;;
13432;SDS011;6789;47.678;9.158;2023-06-22T02:06:07;9.88;;;5.32;;
13432;SDS011;6789;47.678;9.158;2023-06-22T02:11:08;11.27;;;5.40;;
13432;SDS011;6789;47.678;9.158;2023-06-22T02:16:03;8.38;;;5.45;;
13432;SDS011;6789;47.678;9.158;2023-06-22T02:20:55;9.85;;;4.97;;
13432;SDS011;6789;47.678;9.158;2023-06-22T02:25:47;7.88;;;4.82;;
13432;SDS011;6789;47.678;9.158;2023-06-22T02:30:38;9.98;;;5.30;;
13432;SDS011;6789;47.678;9.158;2023-06-22T02:35:30;9.65;;;5.07;;
13432;SDS011;6789;47.678;9.158;2023-06-22T02:40:23;7.65;;;5.18;;
13432;SDS011;6789;47.678;9.158;2023-06-22T02:45:14;10.60;;;5.18;;
13432;SDS011;6789;47.678;9.158;2023-06-22T02:50:06;11.00;;;4.82;;
13432;SDS011;6789;47.678;9.158;2023-06-22T02:54:58;7.22;;;4.45;;
13432;SDS011;6789;47.678;9.158;2023-06-22T02:59:51;7.22;;;4.93;;
13432;SDS011;6789;47.678;9.158;2023-06-22T03:04:42;10.25;;;4.93;;
13432;SDS011;6789;47.678;9.158;2023-06-22T03:09:35;10.05;;;6.10;;
13432;SDS011;6789;47.678;9.158;2023-06-22T03:14:27;10.20;;;5.15;;
13432;SDS011;6789;47.678;9.158;2023-06-22T03:19:18;17.92;;;5.97;;
13432;SDS011;6789;47.678;9.158;2023-06-22T03:24:12;12.55;;;5.78;;
13432;SDS011;6789;47.678;9.158;2023-06-22T03:29:04;10.18;;;4.93;;
13432;SDS011;6789;47.678;9.158;2023-06-22T03:33:56;10.73;;;6.18;;
13432;SDS011;6789;47.678;9.158;2023-06-22T03:38:48;9.68;;;4.63;;
13432;SDS011;6789;47.678;9.158;2023-06-22T03:43:42;12.80;;;4.90;;
13432;SDS011;6789;47.678;9.158;2023-06-22T03:48:34;10.38;;;5.32;;
13432;SDS011;6789;47.678;9.158;2023-06-22T03:53:26;9.15;;;5.22;;
13432;SDS011;6789;47.678;9.158;2023-06-22T03:58:18;14.40;;;6.20;;
13432;SDS011;6789;47.678;9.158;2023-06-22T04:03:25;9.73;;;4.22;;
13432;SDS011;6789;47.678;9.158;2023-06-22T04:08:17;12.52;;;5.57;;
13432;SDS011;6789;47.678;9.158;2023-06-22T04:13:09;8.07;;;4.95;;
13432;SDS011;6789;47.678;9.158;2023-06-22T04:18:01;9.68;;;5.20;;
13432;SDS011;6789;47.678;9.158;2023-06-22T04:22:53;7.88;;;5.57;;
13432;SDS011;6789;47.678;9.158;2023-06-22T04:27:45;14.63;;;5.57;;
13432;SDS011;6789;47.678;9.158;2023-06-22T04:32:39;9.45;;;6.40;;
13432;SDS011;6789;47.678;9.158;2023-06-22T04:37:32;11.68;;;5.68;;
13432;SDS011;6789;47.678;9.158;2023-06-22T04:42:28;10.07;;;5.88;;
13432;SDS011;6789;47.678;9.158;2023-06-22T04:47:33;8.02;;;5.82;;
13432;SDS011;6789;47.678;9.158;2023-06-22T04:52:40;10.15;;;5.80;;
13432;SDS011;6789;47.678;9.158;2023-06-22T04:57:32;12.15;;;6.30;;
13432;SDS011;6789;47.678;9.158;2023-06-22T05:02:24;11.95;;;6.07;;
13432;SDS011;6789;47.678;9.158;2023-06-22T05:07:36;9.73;;;5.32;;
13432;SDS011;6789;47.678;9.158;2023-06-22T05:12:42;7.93;;;5.38;;
13432;SDS011;6789;47.678;9.158;2023-06-22T05:17:35;10.95;;;5.93;;
13432;SDS011;6789;47.678;9.158;2023-06-22T05:22:28;10.68;;;5.68;;
13432;SDS011;6789;47.678;9.158;2023-06-22T05:27:19;10.73;;;5.35;;
13432;SDS011;6789;47.678;9.158;2023-06-22T05:32:25;8.35;;;5.55;;
13432;SDS011;6789;47.678;9.158;2023-06-22T05:37:17;9.88;;;6.30;;
13432;SDS011;6789;47.678;9.158;2023-06-22T05:42:27;12.30;;;5.75;;
13432;SDS011;6789;47.678;9.158;2023-06-22T05:47:36;9.63;;;6.35;;
13432;SDS011;6789;47.678;9.158;2023-06-22T05:52:29;10.13;;;5.43;;
13432;SDS011;6789;47.678;9.158;2023-06-22T05:57:59;8.68;;;5.60;;
13432;SDS011;6789;47.678;9.158;2023-06-22T06:03:24;8.88;;;6.32;;
13432;SDS011;6789;47.678;9.158;2023-06-22T06:08:33;10.60;;;6.22;;
13432;SDS011;6789;47.678;9.158;2023-06-22T06:13:25;10.13;;;5.57;;
13432;SDS011;6789;47.678;9.158;2023-06-22T06:18:17;11.40;;;6.63;;
13432;SDS011;6789;47.678;9.158;2023-06-22T06:23:14;11.48;;;6.50;;
13432;SDS011;6789;47.678;9.158;2023-06-22T06:28:24;10.20;;;6.25;;
13432;SDS011;6789;47.678;9.158;2023-06-22T06:33:30;12.77;;;5.80;;
13432;SDS011;6789;47.678;9.158;2023-06-22T06:38:36;9.90;;;6.05;;
13432;SDS011;6789;47.678;9.158;2023-06-22T06:43:44;13.43;;;6.13;;
13432;SDS011;6789;47.678;9.158;2023-06-22T06:48:36;11.02;;;6.05;;
13432;SDS011;6789;47.678;9.158;2023-06-22T06:53:42;10.30;;;5.97;;
13432;SDS011;6789;47.678;9.158;2023-06-22T06:58:50;10.65;;;5.90;;
13432;SDS011;6789;47.678;9.158;2023-06-22T07:03:56;7.78;;;6.10;;
13432;SDS011;6789;47.678;9.158;2023-06-22T07:09:02;9.68;;;6.47;;
13432;SDS011;6789;47.678;9.158;2023-06-22T07:14:22;10.43;;;6.90;;
13432;SDS011;6789;47.678;9.158;2023-06-22T07:19:28;10.77;;;6.35;;
13432;SDS011;6789;47.678;9.158;2023-06-22T07:24:49;12.35;;;6.28;;
13432;SDS011;6789;47.678;9.158;2023-06-22T07:30:24;11.60;;;6.53;;
13432;SDS011;6789;47.678;9.158;2023-06-22T07:35:31;9.85;;;5.60;;
13432;SDS011;6789;47.678;9.158;2023-06-22T07:46:18;11.55;;;5.63;;
13432;SDS011;6789;47.678;9.158;2023-06-22T07:51:26;8.80;;;5.68;;
13432;SDS011;6789;47.678;9.158;2023-06-22T07:56:32;8.10;;;5.07;;
13432;SDS011;6789;47.678;9.158;2023-06-22T08:01:55;12.05;;;6.18;;
13432;SDS011;6789;47.678;9.158;2023-06-22T08:07:35;9.13;;;5.38;;
13432;SDS011;6789;47.678;9.158;2023-06-22T08:12:52;11.70;;;5.90;;
13432;SDS011;6789;47.678;9.158;2023-06-22T08:18:09;9.95;;;6.35;;
13432;SDS011;6789;47.678;9.158;2023-06-22T08:23:34;12.55;;;6.15;;
13432;SDS011;6789;47.678;9.158;2023-06-22T08:28:52;11.65;;;5.93;;
13432;SDS011;6789;47.678;9.158;2023-06-22T08:34:46;13.05;;;6.35;;
13432;SDS011;6789;47.678;9.158;2023-06-22T08:40:40;12.38;;;7.15;;
13432;SDS011;6789;47.678;9.158;2023-06-22T08:46:15;10.73;;;5.68;;
13432;SDS011;6789;47.678;9.158;2023-06-22T08:52:45;12.75;;;6.95;;
13432;SDS011;6789;47.678;9.158;2023-06-22T08:57:57;17.92;;;7.75;;
13432;SDS011;6789;47.678;9.158;2023-06-22T09:03:53;11.55;;;7.35;;
13432;SDS011;6789;47.678;9.158;2023-06-22T09:09:42;11.95;;;6.68;;
13432;SDS011;6789;47.678;9.158;2023-06-22T09:15:16;13.23;;;6.43;;
13432;SDS011;6789;47.678;9.158;2023-06-22T09:20:33;10.57;;;6.45;;
13432;SDS011;6789;47.678;9.158;2023-06-22T09:25:42;11.15;;;6.13;;
13432;SDS011;6789;47.678;9.158;2023-06-22T09:31:12;13.93;;;6.85;;
13432;SDS011;6789;47.678;9.158;2023-06-22T09:36:20;13.57;;;6.97;;
13432;SDS011;6789;47.678;9.158;2023-06-22T09:41:39;13.73;;;6.65;;
13432;SDS011;6789;47.678;9.158;2023-06-22T09:47:04;14.43;;;7.05;;
13432;SDS011;6789;47.678;9.158;2023-06-22T09:52:17;9.02;;;5.55;;
13432;SDS011;6789;47.678;9.158;2023-06-22T09:57:41;14.80;;;6.63;;
13432;SDS011;6789;47.678;9.158;2023-06-22T10:03:06;14.05;;;6.90;;
13432;SDS011;6789;47.678;9.158;2023-06-22T10:08:32;13.50;;;6.78;;
13432;SDS011;6789;47.678;9.158;2023-06-22T10:13:44;9.20;;;5.82;;
13432;SDS011;6789;47.678;9.158;2023-06-22T10:18:55;12.65;;;6.07;;
13432;SDS011;6789;47.678;9.158;2023-06-22T10:24:00;13.73;;;6.95;;
13432;SDS011;6789;47.678;9.158;2023-06-22T10:35:55;12.85;;;7.25;;
13432;SDS011;6789;47.678;9.158;2023-06-22T10:42:17;10.15;;;6.75;;
13432;SDS011;6789;47.678;9.158;2023-06-22T10:47:46;13.32;;;6.60;;
13432;SDS011;6789;47.678;9.158;2023-06-22T10:52:58;12.43;;;6.40;;
13432;SDS011;6789;47.678;9.158;2023-06-22T10:58:37;11.93;;;6.05;;
13432;SDS011;6789;47.678;9.158;2023-06-22T11:04:05;10.05;;;6.50;;
13432;SDS011;6789;47.678;9.158;2023-06-22T11:15:35;14.73;;;6.57;;
13432;SDS011;6789;47.678;9.158;2023-06-22T11:21:10;12.68;;;6.18;;
13432;SDS011;6789;47.678;9.158;2023-06-22T11:26:20;12.65;;;5.65;;
13432;SDS011;6789;47.678;9.158;2023-06-22T11:32:17;13.55;;;7.13;;
13432;SDS011;6789;47.678;9.158;2023-06-22T11:37:24;10.07;;;5.95;;
13432;SDS011;6789;47.678;9.158;2023-06-22T11:42:35;10.02;;;6.68;;
13432;SDS011;6789;47.678;9.158;2023-06-22T11:47:49;14.75;;;6.90;;
13432;SDS011;6789;47.678;9.158;2023-06-22T11:53:06;9.38;;;5.78;;
13432;SDS011;6789;47.678;9.158;2023-06-22T11:58:12;12.00;;;6.40;;
13432;SDS011;6789;47.678;9.158;2023-06-22T12:03:22;12.38;;;6.60;;
13432;SDS011;6789;47.678;9.158;2023-06-22T12:08:48;17.17;;;6.95;;
13432;SDS011;6789;47.678;9.158;2023-06-22T12:14:25;9.00;;;5.78;;
13432;SDS011;6789;47.678;9.158;2023-06-22T12:25:41;9.88;;;6.65;;
13432;SDS011;6789;47.678;9.158;2023-06-22T12:30:57;14.02;;;6.70;;
13432;SDS011;6789;47.678;9.158;2023-06-22T12:36:12;12.73;;;6.45;;
13432;SDS011;6789;47.678;9.158;2023-06-22T12:41:48;9.00;;;5.72;;
13432;SDS011;6789;47.678;9.158;2023-06-22T12:54:05;12.10;;;6.10;;
13432;SDS011;6789;47.678;9.158;2023-06-22T12:59:31;12.10;;;5.90;;
13432;SDS011;6789;47.678;9.158;2023-06-22T13:05:02;13.50;;;5.75;;
13432;SDS011;6789;47.678;9.158;2023-06-22T13:10:24;8.57;;;5.93;;
13432;SDS011;6789;47.678;9.158;2023-06-22T13:15:49;14.68;;;6.10;;
13432;SDS011;6789;47.678;9.158;2023-06-22T13:21:06;9.75;;;5.50;;
13432;SDS011;6789;47.678;9.158;2023-06-22T13:26:14;12.77;;;5.78;;
13432;SDS011;6789;47.678;9.158;2023-06-22T13:37:58;11.38;;;6.82;;
13432;SDS011;6789;47.678;9.158;2023-06-22T14:18:21;10.88;;;4.38;;
13432;SDS011;6789;47.678;9.158;2023-06-22T14:23:33;11.23;;;4.97;;
13432;SDS011;6789;47.678;9.158;2023-06-22T14:28:42;7.28;;;3.83;;
13432;SDS011;6789;47.678;9.158;2023-06-22T14:33:55;7.07;;;3.95;;
13432;SDS011;6789;47.678;9.158;2023-06-22T14:39:02;9.85;;;4.25;;
13432;SDS011;6789;47.678;9.158;2023-06-22T14:44:48;9.70;;;3.65;;
13432;SDS011;6789;47.678;9.158;2023-06-22T14:49:40;9.07;;;3.67;;
13432;SDS011;6789;47.678;9.158;2023-06-22T15:06:52;6.95;;;3.28;;
13432;SDS011;6789;47.678;9.158;2023-06-22T15:12:09;9.40;;;3.60;;
13432;SDS011;6789;47.678;9.158;2023-06-22T15:22:27;11.02;;;4.07;;
13432;SDS011;6789;47.678;9.158;2023-06-22T15:27:43;6.72;;;3.53;;
13432;SDS011;6789;47.678;9.158;2023-06-22T15:38:18;6.90;;;3.70;;
13432;SDS011;6789;47.678;9.158;2023-06-22T15:43:24;13.27;;;3.75;;
13432;SDS011;6789;47.678;9.158;2023-06-22T15:48:30;8.15;;;3.60;;
13432;SDS011;6789;47.678;9.158;2023-06-22T15:53:48;7.53;;;3.30;;
13432;SDS011;6789;47.678;9.158;2023-06-22T15:58:41;10.98;;;3.60;;
13432;SDS011;6789;47.678;9.158;2023-06-22T16:03:58;8.25;;;3.78;;
13432;SDS011;6789;47.678;9.158;2023-06-22T16:09:30;9.95;;;3.67;;
13432;SDS011;6789;47.678;9.158;2023-06-22T16:14:50;10.02;;;3.85;;
13432;SDS011;6789;47.678;9.158;2023-06-22T16:19:42;10.68;;;3.65;;
13432;SDS011;6789;47.678;9.158;2023-06-22T16:24:34;9.27;;;3.75;;
13432;SDS011;6789;47.678;9.158;2023-06-22T16:29:51;9.88;;;3.65;;
13432;SDS011;6789;47.678;9.158;2023-06-22T16:35:34;9.77;;;4.25;;
13432;SDS011;6789;47.678;9.158;2023-06-22T16:40:56;12.40;;;3.88;;
13432;SDS011;6789;47.678;9.158;2023-06-22T16:45:48;7.47;;;3.35;;
13432;SDS011;6789;47.678;9.158;2023-06-22T16:50:55;5.85;;;2.97;;
13432;SDS011;6789;47.678;9.158;2023-06-22T16:55:50;8.50;;;3.30;;
13432;SDS011;6789;47.678;9.158;2023-06-22T17:00:44;7.22;;;3.35;;
13432;SDS011;6789;47.678;9.158;2023-06-22T17:05:37;12.45;;;3.90;;
13432;SDS011;6789;47.678;9.158;2023-06-22T17:11:02;12.77;;;4.28;;
13432;SDS011;6789;47.678;9.158;2023-06-22T17:16:15;10.48;;;4.85;;
13432;SDS011;6789;47.678;9.158;2023-06-22T17:21:33;8.75;;;4.07;;
13432;SDS011;6789;47.678;9.158;2023-06-22T17:26:25;7.22;;;4.15;;
13432;SDS011;6789;47.678;9.158;2023-06-22T17:31:37;7.70;;;3.85;;
13432;SDS011;6789;47.678;9.158;2023-06-22T17:36:58;8.18;;;3.92;;
13432;SDS011;6789;47.678;9.158;2023-06-22T17:41:51;7.38;;;3.78;;
13432;SDS011;6789;47.678;9.158;2023-06-22T17:47:48;12.70;;;4.00;;
13432;SDS011;6789;47.678;9.158;2023-06-22T18:00:27;7.40;;;3.65;;
13432;SDS011;6789;47.678;9.158;2023-06-22T18:06:42;7.43;;;4.00;;
13432;SDS011;6789;47.678;9.158;2023-06-22T18:12:04;7.68;;;3.60;;
13432;SDS011;6789;47.678;9.158;2023-06-22T18:17:35;8.15;;;3.88;;
13432;SDS011;6789;47.678;9.158;2023-06-22T18:48:03;8.93;;;3.30;;
13432;SDS011;6789;47.678;9.158;2023-06-22T18:53:31;7.95;;;3.05;;
13432;SDS011;6789;47.678;9.158;2023-06-22T18:58:23;3.78;;;2.50;;
13432;SDS011;6789;47.678;9.158;2023-06-22T19:03:34;4.47;;;2.03;;
13432;SDS011;6789;47.678;9.158;2023-06-22T19:08:27;3.33;;;1.30;;
13432;SDS011;6789;47.678;9.158;2023-06-22T19:14:19;4.45;;;1.88;;
13432;SDS011;6789;47.678;9.158;2023-06-22T19:19:36;2.95;;;1.58;;
13432;SDS011;6789;47.678;9.158;2023-06-22T19:24:31;5.05;;;1.45;;
13432;SDS011;6789;47.678;9.158;2023-06-22T19:29:40;2.92;;;1.40;;
13432;SDS011;6789;47.678;9.158;2023-06-22T19:34:48;3.60;;;1.42;;
13432;SDS011;6789;47.678;9.158;2023-06-22T19:39:40;3.47;;;1.30;;
13432;SDS011;6789;47.678;9.158;2023-06-22T19:50:37;3.00;;;1.38;;
13432;SDS011;6789;47.678;9.158;2023-06-22T19:55:47;5.70;;;1.38;;
13432;SDS011;6789;47.678;9.158;2023-06-22T20:01:54;2.45;;;1.50;;
13432;SDS011;6789;47.678;9.158;2023-06-22T20:07:20;2.45;;;1.30;;
13432;SDS011;6789;47.678;9.158;2023-06-22T20:12:23;2.95;;;1.30;;
13432;SDS011;6789;47.678;9.158;2023-06-22T20:17:40;2.97;;;1.17;;
13432;SDS011;6789;47.678;9.158;2023-06-22T20:23:08;4.68;;;1.52;;
13432;SDS011;6789;47.678;9.158;2023-06-22T20:28:10;2.38;;;1.67;;
13432;SDS011;6789;47.678;9.158;2023-06-22T20:33:13;2.13;;;1.40;;
13432;SDS011;6789;47.678;9.158;2023-06-22T20:38:46;2.17;;;1.75;;
13432;SDS011;6789;47.678;9.158;2023-06-22T20:43:38;2.45;;;1.45;;
13432;SDS011;6789;47.678;9.158;2023-06-22T20:48:30;4.85;;;1.52;;
13432;SDS011;6789;47.678;9.158;2023-06-22T20:53:29;2.42;;;1.30;;
13432;SDS011;6789;47.678;9.158;2023-06-22T20:58:22;2.00;;;1.42;;
13432;SDS011;6789;47.678;9.158;2023-06-22T21:03:14;2.47;;;1.45;;
13432;SDS011;6789;47.678;9.158;2023-06-22T21:08:06;2.05;;;1.30;;
13432;SDS011;6789;47.678;9.158;2023-06-22T21:13:06;4.50;;;1.30;;
13432;SDS011;6789;47.678;9.158;2023-06-22T21:18:47;2.33;;;1.25;;
13432;SDS011;6789;47.678;9.158;2023-06-22T21:23:56;1.75;;;1.10;;
13432;SDS011;6789;47.678;9.158;2023-06-22T21:28:47;3.55;;;1.58;;
13432;SDS011;6789;47.678;9.158;2023-06-22T21:33:39;2.97;;;1.30;;
13432;SDS011;6789;47.678;9.158;2023-06-22T21:38:31;2.00;;;1.50;;
13432;SDS011;6789;47.678;9.158;2023-06-22T21:43:48;2.88;;;1.42;;
13432;SDS011;6789;47.678;9.158;2023-06-22T21:54:16;2.53;;;1.23;;
13432;SDS011;6789;47.678;9.158;2023-06-22T21:59:08;2.00;;;1.42;;
13432;SDS011;6789;47.678;9.158;2023-06-22T22:04:00;2.47;;;1.50;;
13432;SDS011;6789;47.678;9.158;2023-06-22T22:09:17;1.90;;;1.42;;
13432;SDS011;6789;47.678;9.158;2023-06-22T22:14:35;2.05;;;1.38;;
13432;SDS011;6789;47.678;9.158;2023-06-22T22:19:27;2.97;;;1.40;;
13432;SDS011;6789;47.678;9.158;2023-06-22T22:24:18;3.85;;;1.50;;
13432;SDS011;6789;47.678;9.158;2023-06-22T22:29:10;2.35;;;1.50;;
13432;SDS011;6789;47.678;9.158;2023-06-22T22:34:03;2.25;;;1.30;;
13432;SDS011;6789;47.678;9.158;2023-06-22T22:39:01;3.45;;;1.88;;
13432;SDS011;6789;47.678;9.158;2023-06-22T22:43:54;2.45;;;1.45;;
13432;SDS011;6789;47.678;9.158;2023-06-22T22:48:48;3.92;;;1.52;;
13432;SDS011;6789;47.678;9.158;2023-06-22T22:53:40;2.50;;;1.50;;
13432;SDS011;6789;47.678;9.158;2023-06-22T22:58:33;1.60;;;1.25;;
13432;SDS011;6789;47.678;9.158;2023-06-22T23:03:25;2.17;;;1.40;;
13432;SDS011;6789;47.678;9.158;2023-06-22T23:08:17;1.77;;;1.38;;
13432;SDS011;6789;47.678;9.158;2023-06-22T23:13:23;1.58;;;1.45;;
13432;SDS011;6789;47.678;9.158;2023-06-22T23:18:14;2.88;;;1.90;;
13432;SDS011;6789;47.678;9.158;2023-06-22T23:23:20;2.00;;;1.40;;
13432;SDS011;6789;47.678;9.158;2023-06-22T23:28:12;2.28;;;1.65;;
13432;SDS011;6789;47.678;9.158;2023-06-22T23:33:09;2.28;;;1.50;;
13432;SDS011;6789;47.678;9.158;2023-06-22T23:38:15;2.20;;;1.65;;
13432;SDS011;6789;47.678;9.158;2023-06-22T23:43:07;2.10;;;1.42;;
13432;SDS011;6789;47.678;9.158;2023-06-22T23:47:59;2.03;;;1.45;;
13432;SDS011;6789;47.678;9.158;2023-06-22T23:52:51;1.80;;;1.35;;
13432;SDS011;6789;47.678;9.158;2023-06-22T23:57:44;3.10;;;1.35;;
